Time;durP1;ratioP1;P1;durP2;ratioP2;P2;SDS_P1;SDS_P2;PMS_P1;PMS_P2;Temp;Humidity;BMP_temperature;BMP_pressure;BME280_temperature;BME280_humidity;BME280_pressure;Samples;Min_cycle;Max_cycle;Signal;HPM_P1;HPM_P2
2021/08/06 00:00:59;;;;;;;;;;;;;;;24.67;43.39;99563.84;5098058;28;871;-35
2021/08/06 00:03:24;;;;;;;;;;;;;;;24.79;43.01;99571.41;5098768;28;763;-36
2021/08/06 00:05:50;;;;;;;;;;;;;;;23.87;45.49;99574.69;5098001;28;1099;-35
2021/08/06 00:08:15;;;;;;;;;;;;;;;24.83;43.23;99573.50;5097718;28;1910;-36
2021/08/06 00:10:40;;;;;;;;;;;;;;;25.08;45.97;99564.16;5098580;28;772;-35
2021/08/06 00:13:05;;;;;;;;;;;;;;;24.05;45.03;99582.31;5098662;28;800;-33
2021/08/06 00:15:31;;;;;;;;;;;;;;;24.29;46.23;99604.50;5097898;28;775;-35
2021/08/06 00:17:56;;;;;;;;;;;;;;;25.15;42.30;99620.72;5097758;28;1016;-31
2021/08/06 00:20:21;;;;;;;;;;;;;;;24.09;45.14;99610.44;5097354;28;977;-30
2021/08/06 00:22:46;;;;;;;;;;;;;;;23.94;48.62;99611.31;5098167;28;819;-33
2021/08/06 00:25:12;;;;;;;;;;;;;;;25.00;42.93;99604.69;5087201;28;1206;-36
2021/08/06 00:27:37;;;;;;;;;;;;;;;24.14;45.21;99591.91;5077869;28;1953;-31
2021/08/06 00:30:03;;;;;;;;;;;;;;;24.12;47.19;99590.44;5077356;28;867;-27
2021/08/06 00:32:28;;;;;;;;;;;;;;;25.01;43.09;99595.56;5077449;28;744;-37
2021/08/06 00:34:53;;;;;;;;;;;;;;;24.00;45.92;99592.78;5082154;28;1025;-36
2021/08/06 00:37:19;;;;;;;;;;;;;;;23.92;48.36;99597.25;5098234;28;771;-36
2021/08/06 00:39:44;;;;;;;;;;;;;;;24.84;43.63;99603.91;5097966;28;822;-36
2021/08/06 00:42:09;;;;;;;;;;;;;;;24.89;44.21;99600.66;5097778;28;807;-37
2021/08/06 00:44:34;;;;;;;;;;;;;;;23.80;45.71;99594.25;5097376;28;808;-36
2021/08/06 00:47:00;;;;;;;;;;;;;;;24.45;44.76;99590.81;5097420;28;1954;-33
2021/08/06 00:49:25;;;;;;;;;;;;;;;25.15;45.75;99597.34;5096963;28;1022;-29
2021/08/06 00:51:50;;;;;;;;;;;;;;;24.25;44.93;99585.25;5062438;28;1107;-35
2021/08/06 00:54:16;;;;;;;;;;;;;;;23.74;47.78;99578.88;5097237;28;1198;-30
2021/08/06 00:56:41;;;;;;;;;;;;;;;24.82;43.58;99568.31;5097286;28;784;-36
2021/08/06 00:59:07;;;;;;;;;;;;;;;25.12;44.08;99570.81;5079282;28;1353;-33
2021/08/06 01:01:32;;;;;;;;;;;;;;;23.58;45.37;99572.72;5097030;28;882;-32
2021/08/06 01:04:07;;;;;;;;;;;;;;;24.33;44.56;99558.22;5078794;28;744;-29
2021/08/06 01:06:51;;;;;;;;;;;;;;;25.03;45.80;99542.41;5097446;28;986;-31
2021/08/06 01:09:18;;;;;;;;;;;;;;;24.07;43.99;99548.84;5096395;28;1913;-29
2021/08/06 01:11:45;;;;;;;;;;;;;;;24.14;45.25;99559.66;5079388;28;784;-35
2021/08/06 01:14:14;;;;;;;;;;;;;;;25.00;42.41;99550.88;5097468;28;827;-32
2021/08/06 01:16:39;;;;;;;;;;;;;;;24.48;43.77;99549.25;5097038;28;779;-28
2021/08/06 01:19:13;;;;;;;;;;;;;;;23.54;46.56;99536.53;5097339;28;748;-33
2021/08/06 01:21:40;;;;;;;;;;;;;;;24.68;43.33;99533.28;5078024;28;998;-33
2021/08/06 01:24:06;;;;;;;;;;;;;;;24.89;45.19;99528.84;5096405;28;1068;-30
2021/08/06 01:26:31;;;;;;;;;;;;;;;23.81;44.42;99515.34;5079327;28;756;-29
2021/08/06 01:28:57;;;;;;;;;;;;;;;24.23;44.50;99522.78;5078885;28;1905;-32
2021/08/06 01:31:23;;;;;;;;;;;;;;;25.02;42.34;99517.38;5078822;28;775;-35
2021/08/06 01:33:48;;;;;;;;;;;;;;;24.46;43.05;99524.41;5096916;28;839;-32
2021/08/06 01:36:13;;;;;;;;;;;;;;;23.68;47.11;99516.03;5096413;28;1002;-35
2021/08/06 01:38:39;;;;;;;;;;;;;;;24.82;43.00;99514.53;5096381;28;759;-36
2021/08/06 01:41:04;;;;;;;;;;;;;;;25.17;43.74;99519.09;5096666;28;780;-31
2021/08/06 01:43:48;;;;;;;;;;;;;;;23.84;44.69;99506.91;5097060;28;809;-33
2021/08/06 01:46:16;;;;;;;;;;;;;;;24.61;43.86;99500.13;5096493;28;906;-31
2021/08/06 01:48:42;;;;;;;;;;;;;;;24.98;46.41;99502.66;5078680;28;1969;-31
2021/08/06 01:51:07;;;;;;;;;;;;;;;24.04;44.47;99508.94;5096451;28;962;-35
2021/08/06 01:53:34;;;;;;;;;;;;;;;24.16;46.47;99516.47;5096514;28;772;-33
2021/08/06 01:56:00;;;;;;;;;;;;;;;24.95;42.63;99516.50;5096755;28;1255;-35
2021/08/06 01:58:26;;;;;;;;;;;;;;;24.64;44.11;99513.16;5096844;28;793;-32
2021/08/06 02:00:52;;;;;;;;;;;;;;;23.78;46.28;99509.50;5077763;28;927;-34
2021/08/06 02:03:18;;;;;;;;;;;;;;;24.83;42.92;99503.56;5096823;28;740;-33
2021/08/06 02:05:43;;;;;;;;;;;;;;;25.18;45.28;99500.06;5096176;28;1033;-32
2021/08/06 02:08:09;;;;;;;;;;;;;;;24.08;44.50;99498.66;5096231;28;1971;-33
2021/08/06 02:10:34;;;;;;;;;;;;;;;24.38;44.64;99500.34;5096082;28;828;-35
2021/08/06 02:13:01;;;;;;;;;;;;;;;25.15;41.67;99491.53;5096649;28;839;-27
2021/08/06 02:15:27;;;;;;;;;;;;;;;23.89;46.24;99500.13;5080315;28;783;-33
2021/08/06 02:17:52;;;;;;;;;;;;;;;22.95;48.63;99498.84;5100470;28;796;-36
2021/08/06 02:20:18;;;;;;;;;;;;;;;24.46;44.84;99498.38;5080526;28;986;-37
2021/08/06 02:22:43;;;;;;;;;;;;;;;25.24;46.02;99506.47;5082534;28;743;-32
2021/08/06 02:25:09;;;;;;;;;;;;;;;23.64;47.88;99493.25;5100652;28;1255;-36
2021/08/06 02:27:34;;;;;;;;;;;;;;;23.15;49.25;99492.91;5081663;28;1897;-38
2021/08/06 02:29:59;;;;;;;;;;;;;;;23.08;48.30;99490.13;5081924;28;838;-38
2021/08/06 02:32:25;;;;;;;;;;;;;;;22.43;47.56;99479.06;5082117;28;962;-28
2021/08/06 02:34:50;;;;;;;;;;;;;;;22.09;49.07;99484.72;5099542;28;951;-31
2021/08/06 02:37:15;;;;;;;;;;;;;;;22.24;49.27;99482.06;5100314;28;756;-33
2021/08/06 02:39:41;;;;;;;;;;;;;;;22.55;49.05;99479.44;5100073;28;710;-30
2021/08/06 02:42:06;;;;;;;;;;;;;;;24.25;43.40;99483.13;5099840;28;788;-31
2021/08/06 02:44:35;;;;;;;;;;;;;;;24.82;44.04;99491.13;5099961;28;744;-31
2021/08/06 02:47:01;;;;;;;;;;;;;;;22.87;46.41;99477.47;5100045;28;1974;-33
2021/08/06 02:49:31;;;;;;;;;;;;;;;21.80;46.83;99477.41;5099419;28;943;-29
2021/08/06 02:51:56;;;;;;;;;;;;;;;21.21;46.54;99488.41;5099261;28;828;-32
2021/08/06 02:54:21;;;;;;;;;;;;;;;21.50;47.42;99494.13;5099502;28;1061;-38
2021/08/06 02:56:47;;;;;;;;;;;;;;;21.49;47.87;99482.59;5100016;28;760;-36
2021/08/06 02:59:12;;;;;;;;;;;;;;;21.77;48.97;99479.38;5099258;28;827;-30
2021/08/06 03:01:37;;;;;;;;;;;;;;;21.93;50.62;99484.84;5099188;28;839;-32
2021/08/06 03:04:03;;;;;;;;;;;;;;;22.13;52.08;99487.88;5099936;28;811;-38
2021/08/06 03:06:28;;;;;;;;;;;;;;;24.16;47.47;99479.72;5098749;28;974;-36
2021/08/06 03:08:53;;;;;;;;;;;;;;;23.24;49.13;99483.72;5099472;28;2035;-33
2021/08/06 03:11:19;;;;;;;;;;;;;;;22.36;50.55;99487.84;5099315;28;1434;-33
2021/08/06 03:13:44;;;;;;;;;;;;;;;22.02;51.61;99489.13;5099417;28;875;-38
2021/08/06 03:16:09;;;;;;;;;;;;;;;21.98;51.85;99498.53;5099534;28;779;-38
2021/08/06 03:18:34;;;;;;;;;;;;;;;21.97;52.38;99492.31;5081170;28;863;-31
2021/08/06 03:21:00;;;;;;;;;;;;;;;21.74;55.14;99493.13;5098054;28;1049;-33
2021/08/06 03:23:25;;;;;;;;;;;;;;;21.85;53.13;99497.28;5099413;28;756;-31
2021/08/06 03:25:50;;;;;;;;;;;;;;;21.94;51.53;99489.19;5082431;28;1186;-30
2021/08/06 03:28:16;;;;;;;;;;;;;;;22.15;53.04;99491.22;5078690;28;1968;-33
2021/08/06 03:30:41;;;;;;;;;;;;;;;22.44;55.49;99483.41;5078226;28;807;-30
2021/08/06 03:33:06;;;;;;;;;;;;;;;22.58;56.95;99482.59;5079077;28;811;-31
2021/08/06 03:35:32;;;;;;;;;;;;;;;22.77;56.18;99479.59;5088891;28;951;-28
2021/08/06 03:37:57;;;;;;;;;;;;;;;22.95;55.48;99481.91;5099214;28;814;-32
2021/08/06 03:40:22;;;;;;;;;;;;;;;22.78;56.89;99481.25;5099060;28;807;-30
2021/08/06 03:42:47;;;;;;;;;;;;;;;23.05;56.64;99485.13;5098653;28;763;-35
2021/08/06 03:45:13;;;;;;;;;;;;;;;22.42;57.12;99472.06;5098828;28;760;-36
2021/08/06 03:47:38;;;;;;;;;;;;;;;22.18;57.06;99465.91;5099051;28;1886;-30
2021/08/06 03:50:04;;;;;;;;;;;;;;;22.83;55.93;99460.06;5097802;28;1132;-29
2021/08/06 03:52:29;;;;;;;;;;;;;;;22.84;56.19;99451.84;5099084;28;736;-29
2021/08/06 03:54:54;;;;;;;;;;;;;;;22.92;55.42;99460.81;5104183;28;1282;-30
2021/08/06 03:57:19;;;;;;;;;;;;;;;22.85;55.92;99456.22;5118486;28;811;-28
2021/08/06 03:59:45;;;;;;;;;;;;;;;22.63;56.13;99441.88;5118816;28;839;-33
2021/08/06 04:02:10;;;;;;;;;;;;;;;22.61;55.88;99441.22;5119508;28;736;-30
2021/08/06 04:04:35;;;;;;;;;;;;;;;24.51;49.91;99446.69;5118471;28;974;-32
2021/08/06 04:07:01;;;;;;;;;;;;;;;25.14;47.72;99446.84;5119021;28;1960;-34
2021/08/06 04:09:26;;;;;;;;;;;;;;;25.29;43.95;99450.19;5118693;28;750;-33
2021/08/06 04:11:51;;;;;;;;;;;;;;;25.37;43.58;99459.13;5118655;28;831;-35
2021/08/06 04:14:16;;;;;;;;;;;;;;;25.86;43.86;99467.13;5118606;28;833;-32
2021/08/06 04:16:42;;;;;;;;;;;;;;;26.16;43.94;99477.47;5118894;28;1445;-37
2021/08/06 04:19:07;;;;;;;;;;;;;;;26.21;45.49;99460.72;5118680;28;806;-35
2021/08/06 04:21:32;;;;;;;;;;;;;;;26.53;43.90;99447.41;5117608;28;969;-36
2021/08/06 04:23:58;;;;;;;;;;;;;;;26.54;44.34;99432.91;5118433;28;1107;-37
2021/08/06 04:26:23;;;;;;;;;;;;;;;26.62;45.61;99438.06;5118643;28;743;-33
2021/08/06 04:28:48;;;;;;;;;;;;;;;26.80;44.09;99438.41;5108506;28;1914;-34
2021/08/06 04:31:13;;;;;;;;;;;;;;;26.72;45.41;99440.31;5097797;28;1042;-32
2021/08/06 04:33:39;;;;;;;;;;;;;;;26.99;44.52;99436.69;5098019;28;788;-37
2021/08/06 04:36:04;;;;;;;;;;;;;;;26.91;45.02;99421.56;5112448;28;958;-35
2021/08/06 04:38:29;;;;;;;;;;;;;;;26.85;46.93;99434.03;5117640;28;815;-29
2021/08/06 04:40:55;;;;;;;;;;;;;;;27.15;44.60;99440.78;5118334;28;804;-30
2021/08/06 04:43:20;;;;;;;;;;;;;;;27.03;45.83;99443.34;5117957;28;795;-34
2021/08/06 04:45:46;;;;;;;;;;;;;;;27.30;44.79;99445.91;5117784;28;831;-31
2021/08/06 04:48:11;;;;;;;;;;;;;;;27.25;45.49;99441.16;5117682;28;1905;-36
2021/08/06 04:50:36;;;;;;;;;;;;;;;27.08;47.61;99438.13;5117290;28;970;-33
2021/08/06 04:53:02;;;;;;;;;;;;;;;27.41;45.28;99438.16;5117897;28;767;-33
2021/08/06 04:55:27;;;;;;;;;;;;;;;27.29;46.18;99444.25;5104379;28;1758;-38
2021/08/06 04:57:52;;;;;;;;;;;;;;;27.44;46.55;99448.53;5097445;28;837;-35
2021/08/06 05:00:18;;;;;;;;;;;;;;;27.47;46.14;99457.03;5097080;28;790;-35
2021/08/06 05:02:43;;;;;;;;;;;;;;;27.29;47.80;99470.44;5097460;28;820;-38
2021/08/06 05:05:09;;;;;;;;;;;;;;;26.06;47.86;99485.97;5096534;28;966;-37
2021/08/06 05:07:34;;;;;;;;;;;;;;;26.19;49.50;99474.41;5079060;28;1984;-32
2021/08/06 05:10:00;;;;;;;;;;;;;;;27.13;46.75;99451.81;5097155;28;1520;-36
2021/08/06 05:12:25;;;;;;;;;;;;;;;27.28;47.18;99444.47;5096903;28;804;-31
2021/08/06 05:14:50;;;;;;;;;;;;;;;27.47;48.43;99457.03;5097042;28;751;-33
2021/08/06 05:17:16;;;;;;;;;;;;;;;26.21;47.66;99445.34;5097074;28;824;-34
2021/08/06 05:19:42;;;;;;;;;;;;;;;26.17;49.89;99433.34;5096407;28;911;-33
2021/08/06 05:22:07;;;;;;;;;;;;;;;27.14;46.92;99445.34;5097102;28;714;-30
2021/08/06 05:24:32;;;;;;;;;;;;;;;27.32;47.11;99446.53;5097288;28;1139;-36
2021/08/06 05:26:58;;;;;;;;;;;;;;;27.62;47.37;99450.50;5096520;28;763;-33
2021/08/06 05:29:23;;;;;;;;;;;;;;;26.19;48.25;99443.91;5096990;28;1898;-32
2021/08/06 05:31:48;;;;;;;;;;;;;;;26.09;50.54;99441.63;5097066;28;820;-33
2021/08/06 05:34:13;;;;;;;;;;;;;;;27.14;47.26;99456.16;5096338;28;883;-33
2021/08/06 05:36:39;;;;;;;;;;;;;;;27.26;47.27;99467.09;5096677;28;950;-39
2021/08/06 05:39:04;;;;;;;;;;;;;;;26.11;48.00;99467.31;5096796;28;851;-30
2021/08/06 05:41:29;;;;;;;;;;;;;;;26.44;48.50;99456.75;5096786;28;752;-30
2021/08/06 05:43:55;;;;;;;;;;;;;;;27.32;46.59;99454.63;5096851;28;847;-33
2021/08/06 05:46:20;;;;;;;;;;;;;;;26.98;47.25;99457.44;5096997;28;775;-31
2021/08/06 05:48:45;;;;;;;;;;;;;;;26.81;48.74;99453.56;5096074;28;1905;-32
2021/08/06 05:51:11;;;;;;;;;;;;;;;27.67;46.93;99452.53;5078219;28;959;-34
2021/08/06 05:53:36;;;;;;;;;;;;;;;27.68;46.66;99455.06;5096457;28;771;-33
2021/08/06 05:56:01;;;;;;;;;;;;;;;27.66;49.04;99450.91;5096041;28;1272;-37
2021/08/06 05:58:27;;;;;;;;;;;;;;;28.09;45.37;99447.44;5078455;28;1097;-34
2021/08/06 06:00:52;;;;;;;;;;;;;;;27.84;46.60;99442.88;5097038;28;817;-31
2021/08/06 06:03:17;;;;;;;;;;;;;;;28.19;47.40;99441.56;5096298;28;827;-32
2021/08/06 06:05:43;;;;;;;;;;;;;;;28.23;46.11;99453.56;5095782;28;891;-34
2021/08/06 06:08:08;;;;;;;;;;;;;;;28.04;48.01;99458.13;5096670;28;1975;-34
2021/08/06 06:10:34;;;;;;;;;;;;;;;28.33;46.15;99454.97;5096302;28;818;-29
2021/08/06 06:12:59;;;;;;;;;;;;;;;28.14;46.85;99445.97;5096600;28;786;-32
2021/08/06 06:15:24;;;;;;;;;;;;;;;28.09;48.91;99446.66;5096716;28;927;-31
2021/08/06 06:17:49;;;;;;;;;;;;;;;28.27;46.50;99450.44;5096135;28;906;-34
2021/08/06 06:20:15;;;;;;;;;;;;;;;28.05;47.68;99442.72;5095975;28;930;-30
2021/08/06 06:22:40;;;;;;;;;;;;;;;28.45;46.36;99446.94;5096718;28;771;-32
2021/08/06 06:25:07;;;;;;;;;;;;;;;28.31;46.60;99452.47;5085991;28;1314;-30
2021/08/06 06:27:32;;;;;;;;;;;;;;;28.21;48.76;99450.25;5075977;28;1897;-34
2021/08/06 06:29:58;;;;;;;;;;;;;;;28.48;46.76;99447.34;5076191;28;756;-33
2021/08/06 06:32:23;;;;;;;;;;;;;;;28.15;48.18;99448.44;5076140;28;824;-33
2021/08/06 06:34:48;;;;;;;;;;;;;;;28.62;46.42;99458.00;5079999;28;1046;-37
2021/08/06 06:37:13;;;;;;;;;;;;;;;28.41;46.95;99453.88;5096340;28;819;-32
2021/08/06 06:39:39;;;;;;;;;;;;;;;28.05;49.38;99457.06;5096463;28;751;-36
2021/08/06 06:42:04;;;;;;;;;;;;;;;28.54;46.55;99450.19;5096438;28;735;-33
2021/08/06 06:44:29;;;;;;;;;;;;;;;28.33;47.55;99452.25;5095819;28;822;-35
2021/08/06 06:46:55;;;;;;;;;;;;;;;28.64;47.11;99455.91;5096546;28;809;-33
2021/08/06 06:49:20;;;;;;;;;;;;;;;28.55;47.01;99447.25;5095690;28;1905;-33
2021/08/06 06:51:45;;;;;;;;;;;;;;;28.15;49.15;99424.13;5096211;28;916;-31
2021/08/06 06:54:11;;;;;;;;;;;;;;;28.57;46.88;99437.06;5095754;28;1082;-34
2021/08/06 06:56:36;;;;;;;;;;;;;;;28.40;47.59;99438.69;5095801;28;814;-33
2021/08/06 06:59:01;;;;;;;;;;;;;;;28.63;48.29;99454.25;5095830;28;1007;-32
2021/08/06 07:01:27;;;;;;;;;;;;;;;28.46;46.11;99445.91;5094720;28;1131;-31
2021/08/06 07:03:52;;;;;;;;;;;;;;;28.34;47.13;99433.09;5099431;28;867;-32
2021/08/06 07:06:19;;;;;;;;;;;;;;;28.73;46.17;99441.03;5098075;28;994;-36
2021/08/06 07:08:44;;;;;;;;;;;;;;;28.55;47.15;99444.56;5099090;28;1917;-33
2021/08/06 07:11:09;;;;;;;;;;;;;;;28.58;48.23;99425.16;5099374;28;878;-34
2021/08/06 07:13:35;;;;;;;;;;;;;;;28.81;46.93;99422.84;5099550;28;910;-37
2021/08/06 07:16:00;;;;;;;;;;;;;;;28.54;48.08;99440.22;5099750;28;772;-38
2021/08/06 07:18:26;;;;;;;;;;;;;;;27.82;48.52;99441.44;5098830;28;804;-32
2021/08/06 07:20:52;;;;;;;;;;;;;;;27.81;49.43;99442.50;5099024;28;923;-33
2021/08/06 07:23:17;;;;;;;;;;;;;;;28.55;47.26;99451.84;5099323;28;752;-31
2021/08/06 07:25:42;;;;;;;;;;;;;;;27.82;48.52;99452.25;5098954;28;1123;-32
2021/08/06 07:28:07;;;;;;;;;;;;;;;27.77;48.99;99455.63;5099246;28;1909;-35
2021/08/06 07:30:33;;;;;;;;;;;;;;;28.44;47.74;99453.41;5099365;28;783;-31
2021/08/06 07:32:58;;;;;;;;;;;;;;;27.35;48.35;99447.94;5098895;28;742;-32
2021/08/06 07:35:24;;;;;;;;;;;;;;;28.00;48.28;99437.97;5098364;28;919;-36
2021/08/06 07:37:49;;;;;;;;;;;;;;;28.06;47.29;99426.28;5099249;28;849;-37
2021/08/06 07:40:15;;;;;;;;;;;;;;;27.86;48.66;99429.16;5098643;28;902;-37
2021/08/06 07:42:40;;;;;;;;;;;;;;;28.38;47.71;99435.38;5099126;28;813;-38
2021/08/06 07:45:05;;;;;;;;;;;;;;;27.57;50.99;99431.41;5099053;28;804;-33
2021/08/06 07:47:31;;;;;;;;;;;;;;;28.33;48.08;99433.34;5098236;28;1906;-37
2021/08/06 07:49:56;;;;;;;;;;;;;;;27.58;49.19;99431.19;5098624;28;962;-30
2021/08/06 07:52:21;;;;;;;;;;;;;;;27.88;49.58;99443.25;5098991;28;731;-30
2021/08/06 07:54:48;;;;;;;;;;;;;;;28.25;48.25;99426.31;5098076;28;1163;-31
2021/08/06 07:57:13;;;;;;;;;;;;;;;27.64;51.29;99418.69;5098989;28;827;-32
2021/08/06 07:59:38;;;;;;;;;;;;;;;28.35;48.71;99423.97;5098808;28;838;-32
2021/08/06 08:02:04;;;;;;;;;;;;;;;27.61;49.51;99422.66;5097696;28;857;-36
2021/08/06 08:04:29;;;;;;;;;;;;;;;27.74;50.23;99427.16;5098182;28;986;-33
2021/08/06 08:06:55;;;;;;;;;;;;;;;28.21;48.63;99439.44;5098327;28;688;-31
2021/08/06 08:09:20;;;;;;;;;;;;;;;27.47;51.00;99448.09;5097933;28;1917;-36
2021/08/06 08:11:45;;;;;;;;;;;;;;;28.24;48.93;99452.50;5098606;28;799;-35
2021/08/06 08:14:10;;;;;;;;;;;;;;;27.52;49.31;99459.09;5098440;28;798;-28
2021/08/06 08:16:36;;;;;;;;;;;;;;;27.79;49.82;99448.13;5097614;28;946;-30
2021/08/06 08:19:01;;;;;;;;;;;;;;;28.10;48.03;99453.69;5098280;28;902;-32
2021/08/06 08:21:26;;;;;;;;;;;;;;;27.60;51.43;99457.97;5079226;28;955;-33
2021/08/06 08:23:52;;;;;;;;;;;;;;;28.33;48.78;99472.03;5097956;28;839;-33
2021/08/06 08:26:17;;;;;;;;;;;;;;;27.55;48.82;99472.16;5097979;28;1191;-35
2021/08/06 08:28:42;;;;;;;;;;;;;;;27.92;49.51;99473.38;5079654;28;1905;-38
2021/08/06 08:31:08;;;;;;;;;;;;;;;28.14;48.38;99468.44;5097884;28;854;-31
2021/08/06 08:33:33;;;;;;;;;;;;;;;27.76;50.77;99467.47;5097877;28;843;-31
2021/08/06 08:35:58;;;;;;;;;;;;;;;28.45;48.39;99479.41;5097543;28;1006;-31
2021/08/06 08:39:00;;;;;;;;;;;;;;;27.65;49.22;99474.38;5098085;28;810;-31
2021/08/06 08:41:26;;;;;;;;;;;;;;;28.19;48.95;99478.59;5098334;28;771;-32
2021/08/06 08:43:51;;;;;;;;;;;;;;;27.71;48.92;99476.22;5097858;28;743;-31
2021/08/06 08:46:17;;;;;;;;;;;;;;;27.77;50.28;99471.84;5097495;28;811;-31
2021/08/06 08:48:42;;;;;;;;;;;;;;;28.43;48.76;99478.78;5097482;28;1983;-36
2021/08/06 08:51:07;;;;;;;;;;;;;;;27.49;49.59;99471.13;5078162;28;998;-35
2021/08/06 08:53:33;;;;;;;;;;;;;;;28.13;49.44;99474.88;5079181;28;748;-35
2021/08/06 08:55:58;;;;;;;;;;;;;;;27.82;49.04;99472.00;5097420;28;1260;-37
2021/08/06 08:58:23;;;;;;;;;;;;;;;27.73;51.11;99471.44;5097539;28;733;-28
2021/08/06 09:00:49;;;;;;;;;;;;;;;28.46;49.06;99472.97;5097016;28;831;-33
2021/08/06 09:03:32;;;;;;;;;;;;;;;27.51;50.84;99484.41;5097719;28;807;-31
2021/08/06 09:05:58;;;;;;;;;;;;;;;28.39;49.38;99499.25;5096494;28;954;-32
2021/08/06 09:08:23;;;;;;;;;;;;;;;27.57;49.17;99509.75;5097128;28;1902;-31
2021/08/06 09:10:48;;;;;;;;;;;;;;;27.83;50.10;99497.13;5097677;28;759;-33
2021/08/06 09:13:14;;;;;;;;;;;;;;;28.28;49.08;99490.75;5097473;28;859;-30
2021/08/06 09:15:40;;;;;;;;;;;;;;;27.61;49.66;99484.78;5096936;28;859;-32
2021/08/06 09:18:24;;;;;;;;;;;;;;;28.17;49.33;99483.38;5096806;28;785;-34
2021/08/06 09:20:52;;;;;;;;;;;;;;;27.64;49.00;99475.44;5097040;28;962;-31
2021/08/06 09:23:36;;;;;;;;;;;;;;;27.98;49.30;99494.13;5096501;28;764;-36
2021/08/06 09:26:01;;;;;;;;;;;;;;;28.30;48.04;99494.09;5096837;28;1159;-32
2021/08/06 09:28:26;;;;;;;;;;;;;;;27.61;51.61;99503.69;5097394;28;1957;-32
2021/08/06 09:30:52;;;;;;;;;;;;;;;28.55;48.05;99497.81;5095108;28;1071;-30
2021/08/06 09:33:18;;;;;;;;;;;;;;;27.51;48.17;99493.34;5095303;28;1179;-35
2021/08/06 09:35:43;;;;;;;;;;;;;;;27.95;48.69;99489.16;5077511;28;1324;-33
2021/08/06 09:38:18;;;;;;;;;;;;;;;28.12;46.77;99500.25;5093460;28;1091;-36
2021/08/06 09:40:43;;;;;;;;;;;;;;;27.97;48.57;99506.00;5096873;28;777;-31
2021/08/06 09:43:15;;;;;;;;;;;;;;;28.54;47.55;99509.72;5078033;28;838;-37
2021/08/06 09:45:41;;;;;;;;;;;;;;;27.45;50.86;99498.78;5096218;28;887;-32
2021/08/06 09:48:09;;;;;;;;;;;;;;;28.22;49.01;99494.34;5096592;28;1902;-33
2021/08/06 09:50:35;;;;;;;;;;;;;;;27.20;49.05;99488.72;5096566;28;958;-34
2021/08/06 09:53:01;;;;;;;;;;;;;;;27.77;49.59;99481.81;5096704;28;823;-31
2021/08/06 09:55:27;;;;;;;;;;;;;;;28.09;48.04;99496.09;5096621;28;1081;-33
2021/08/06 09:57:53;;;;;;;;;;;;;;;27.54;51.47;99496.69;5092433;28;899;-34
2021/08/06 10:00:19;;;;;;;;;;;;;;;28.15;49.07;99501.69;5076045;28;780;-36
2021/08/06 10:02:44;;;;;;;;;;;;;;;27.17;49.20;99491.88;5081284;28;1053;-35
2021/08/06 10:05:10;;;;;;;;;;;;;;;27.74;49.98;99502.81;5095835;28;950;-37
2021/08/06 10:07:43;;;;;;;;;;;;;;;27.74;48.26;99510.91;5095657;28;1956;-32
2021/08/06 10:10:10;;;;;;;;;;;;;;;27.78;49.39;99507.78;5096504;28;799;-33
2021/08/06 10:12:35;;;;;;;;;;;;;;;28.30;47.50;99510.31;5097042;28;744;-31
2021/08/06 10:15:01;;;;;;;;;;;;;;;27.65;50.31;99503.25;5096227;28;771;-33
2021/08/06 10:17:26;;;;;;;;;;;;;;;28.29;48.15;99497.84;5096572;28;784;-31
2021/08/06 10:19:52;;;;;;;;;;;;;;;27.39;49.71;99492.41;5096166;28;954;-36
2021/08/06 10:22:17;;;;;;;;;;;;;;;28.02;49.11;99486.41;5095970;28;791;-33
2021/08/06 10:24:45;;;;;;;;;;;;;;;27.83;47.55;99497.13;5096405;28;1139;-32
2021/08/06 10:27:11;;;;;;;;;;;;;;;27.81;49.22;99501.97;5096384;28;760;-36
2021/08/06 10:29:36;;;;;;;;;;;;;;;28.32;47.26;99494.69;5078066;28;1902;-33
2021/08/06 10:32:14;;;;;;;;;;;;;;;27.83;49.80;99497.13;5096623;28;816;-31
2021/08/06 10:34:58;;;;;;;;;;;;;;;28.53;47.49;99476.41;5095809;28;986;-31
2021/08/06 10:37:42;;;;;;;;;;;;;;;27.68;50.55;99487.47;5099526;28;558;-36
2021/08/06 10:40:07;;;;;;;;;;;;;;;28.50;47.44;99497.66;5100368;28;903;-34
2021/08/06 10:42:32;;;;;;;;;;;;;;;27.74;47.62;99505.50;5100127;28;751;-33
2021/08/06 10:44:58;;;;;;;;;;;;;;;27.91;48.85;99517.69;5099974;28;778;-33
2021/08/06 10:47:43;;;;;;;;;;;;;;;28.30;47.13;99521.13;5099782;28;1902;-33
2021/08/06 10:50:18;;;;;;;;;;;;;;;27.72;49.15;99501.38;5099352;28;1771;-35
2021/08/06 10:52:44;;;;;;;;;;;;;;;28.47;47.48;99493.53;5081709;28;1261;-29
2021/08/06 10:55:18;;;;;;;;;;;;;;;27.55;48.57;99488.34;5092182;28;1410;-33
2021/08/06 10:57:43;;;;;;;;;;;;;;;28.15;47.96;99474.66;5120330;28;751;-36
2021/08/06 11:00:09;;;;;;;;;;;;;;;27.70;47.62;99466.47;5119432;28;820;-36
2021/08/06 11:02:34;;;;;;;;;;;;;;;27.83;48.59;99475.53;5120328;28;768;-35
2021/08/06 11:05:00;;;;;;;;;;;;;;;28.21;46.89;99484.59;5119021;28;966;-37
2021/08/06 11:07:32;;;;;;;;;;;;;;;27.85;49.61;99503.16;5119446;28;1918;-32
2021/08/06 11:09:58;;;;;;;;;;;;;;;28.43;47.22;99503.97;5120105;28;906;-36
2021/08/06 11:12:31;;;;;;;;;;;;;;;27.57;47.77;99504.34;5120184;28;829;-35
2021/08/06 11:14:57;;;;;;;;;;;;;;;27.99;48.07;99488.50;5119879;28;735;-32
2021/08/06 11:17:23;;;;;;;;;;;;;;;28.24;46.95;99495.78;5120024;28;862;-33
2021/08/06 11:19:54;;;;;;;;;;;;;;;27.92;48.83;99478.78;5095774;28;990;-35
2021/08/06 11:22:22;;;;;;;;;;;;;;;28.51;47.11;99456.06;5098943;28;863;-35
2021/08/06 11:24:53;;;;;;;;;;;;;;;27.56;48.88;99444.09;5099478;28;1131;-33
2021/08/06 11:27:19;;;;;;;;;;;;;;;28.14;47.88;99437.88;5098763;28;1968;-35
2021/08/06 11:29:57;;;;;;;;;;;;;;;27.69;47.14;99451.31;5098944;28;792;-30
2021/08/06 11:32:22;;;;;;;;;;;;;;;27.85;48.32;99470.72;5099264;28;741;-34
2021/08/06 11:34:51;;;;;;;;;;;;;;;28.06;46.78;99466.00;5099752;28;990;-35
2021/08/06 11:37:17;;;;;;;;;;;;;;;27.89;48.38;99463.03;5099005;28;798;-30
2021/08/06 11:39:59;;;;;;;;;;;;;;;28.24;47.46;99455.22;5098595;28;808;-33
2021/08/06 11:42:25;;;;;;;;;;;;;;;27.82;48.88;99465.78;5099214;28;819;-32
2021/08/06 11:44:54;;;;;;;;;;;;;;;28.49;47.20;99461.69;5098941;28;787;-31
2021/08/06 11:47:32;;;;;;;;;;;;;;;27.33;47.99;99474.34;5098513;28;1905;-35
2021/08/06 11:49:57;;;;;;;;;;;;;;;27.79;48.68;99488.66;5099248;28;994;-33
2021/08/06 11:52:34;;;;;;;;;;;;;;;28.26;47.08;99508.28;5080348;28;1446;-32
2021/08/06 11:54:59;;;;;;;;;;;;;;;27.25;51.27;99491.63;5091323;28;1088;-33
2021/08/06 11:57:25;;;;;;;;;;;;;;;28.20;48.47;99488.34;5078765;28;910;-31
2021/08/06 11:59:50;;;;;;;;;;;;;;;28.08;47.49;99469.31;5059620;28;1317;-37
2021/08/06 12:02:19;;;;;;;;;;;;;;;27.35;51.64;99410.16;5078703;28;772;-32
2021/08/06 12:04:45;;;;;;;;;;;;;;;28.40;48.29;99384.59;5081649;28;948;-32
2021/08/06 12:07:10;;;;;;;;;;;;;;;27.62;47.72;99362.19;5097846;28;824;-37
2021/08/06 12:09:35;;;;;;;;;;;;;;;27.78;49.19;99334.88;5080764;28;1980;-38
2021/08/06 12:12:00;;;;;;;;;;;;;;;28.54;47.51;99340.13;5098586;28;875;-36
2021/08/06 12:14:27;;;;;;;;;;;;;;;27.63;50.84;99344.94;5080074;28;863;-34
2021/08/06 12:16:52;;;;;;;;;;;;;;;28.26;48.49;99381.19;5098562;28;751;-29
2021/08/06 12:19:17;;;;;;;;;;;;;;;28.67;47.91;99412.19;5097673;28;1009;-32
2021/08/06 12:21:44;;;;;;;;;;;;;;;27.54;48.05;99445.34;5097825;28;946;-32
2021/08/06 12:24:12;;;;;;;;;;;;;;;27.78;49.91;99469.97;5096385;28;1210;-30
2021/08/06 12:26:38;;;;;;;;;;;;;;;28.46;48.57;99481.09;5077981;28;808;-34
2021/08/06 12:29:23;;;;;;;;;;;;;;;28.50;47.58;99470.63;5077284;28;2106;-37
2021/08/06 12:31:57;;;;;;;;;;;;;;;27.64;50.62;99456.53;5078026;28;927;-32
2021/08/06 12:34:28;;;;;;;;;;;;;;;28.50;47.90;99459.78;5078288;28;951;-30
2021/08/06 12:36:58;;;;;;;;;;;;;;;28.70;48.13;99463.13;5097860;28;763;-33
2021/08/06 12:39:23;;;;;;;;;;;;;;;27.54;49.31;99481.31;5098194;28;733;-27
2021/08/06 12:41:50;;;;;;;;;;;;;;;28.12;49.14;99470.53;5097586;28;843;-33
2021/08/06 12:44:24;;;;;;;;;;;;;;;28.67;48.68;99454.63;5097186;28;704;-32
2021/08/06 12:47:00;;;;;;;;;;;;;;;27.87;48.42;99437.06;5097892;28;752;-29
2021/08/06 12:49:27;;;;;;;;;;;;;;;27.83;49.93;99403.41;5097126;28;1910;-28
2021/08/06 12:52:24;;;;;;;;;;;;;;;28.58;48.56;99390.00;5097214;28;788;-32
2021/08/06 12:55:06;;;;;;;;;;;;;;;27.85;48.77;99436.44;5052343;28;1526;-33
2021/08/06 12:57:37;;;;;;;;;;;;;;;27.64;50.80;99453.81;5097387;28;905;-32
2021/08/06 13:00:21;;;;;;;;;;;;;;;28.53;48.68;99424.22;5096965;28;879;-32
2021/08/06 13:03:00;;;;;;;;;;;;;;;27.08;50.94;99427.31;5097155;28;825;-34